sensor_id;sensor_type;location;lat;lon;timestamp;P1;durP1;ratioP1;P2;durP2;ratioP2
56114;SDS011;41988;53.020;6.576;2022-12-10T00:01:15;64.97;;;27.30;;
56114;SDS011;41988;53.020;6.576;2022-12-10T00:04:01;69.63;;;27.97;;
56114;SDS011;41988;53.020;6.576;2022-12-10T00:06:46;65.70;;;28.83;;
56114;SDS011;41988;53.020;6.576;2022-12-10T00:09:31;69.07;;;28.17;;
56114;SDS011;41988;53.020;6.576;2022-12-10T00:12:16;74.00;;;31.80;;
56114;SDS011;41988;53.020;6.576;2022-12-10T00:15:01;73.37;;;29.30;;
56114;SDS011;41988;53.020;6.576;2022-12-10T00:17:45;68.90;;;29.90;;
56114;SDS011;41988;53.020;6.576;2022-12-10T00:20:30;72.20;;;31.97;;
56114;SDS011;41988;53.020;6.576;2022-12-10T00:23:15;64.30;;;28.20;;
56114;SDS011;41988;53.020;6.576;2022-12-10T00:26:03;67.23;;;28.13;;
56114;SDS011;41988;53.020;6.576;2022-12-10T00:28:55;72.10;;;27.80;;
56114;SDS011;41988;53.020;6.576;2022-12-10T00:31:40;68.33;;;30.77;;
56114;SDS011;41988;53.020;6.576;2022-12-10T00:34:25;71.73;;;29.00;;
56114;SDS011;41988;53.020;6.576;2022-12-10T00:37:09;72.80;;;29.10;;
56114;SDS011;41988;53.020;6.576;2022-12-10T00:39:54;65.77;;;27.10;;
56114;SDS011;41988;53.020;6.576;2022-12-10T00:42:38;64.90;;;28.07;;
56114;SDS011;41988;53.020;6.576;2022-12-10T00:45:22;65.20;;;28.80;;
56114;SDS011;41988;53.020;6.576;2022-12-10T00:48:07;67.90;;;29.27;;
56114;SDS011;41988;53.020;6.576;2022-12-10T00:50:59;74.10;;;28.60;;
56114;SDS011;41988;53.020;6.576;2022-12-10T00:53:50;65.90;;;27.87;;
56114;SDS011;41988;53.020;6.576;2022-12-10T00:56:35;71.20;;;29.50;;
56114;SDS011;41988;53.020;6.576;2022-12-10T00:59:20;66.03;;;28.57;;
56114;SDS011;41988;53.020;6.576;2022-12-10T01:02:05;72.47;;;30.57;;
56114;SDS011;41988;53.020;6.576;2022-12-10T01:04:53;69.83;;;28.63;;
56114;SDS011;41988;53.020;6.576;2022-12-10T01:07:37;74.40;;;30.37;;
56114;SDS011;41988;53.020;6.576;2022-12-10T01:10:21;69.60;;;30.43;;
56114;SDS011;41988;53.020;6.576;2022-12-10T01:13:06;74.63;;;31.80;;
56114;SDS011;41988;53.020;6.576;2022-12-10T01:15:50;70.53;;;30.23;;
56114;SDS011;41988;53.020;6.576;2022-12-10T01:18:35;78.07;;;31.70;;
56114;SDS011;41988;53.020;6.576;2022-12-10T01:21:20;76.17;;;30.90;;
56114;SDS011;41988;53.020;6.576;2022-12-10T01:24:05;77.57;;;32.43;;
56114;SDS011;41988;53.020;6.576;2022-12-10T01:26:49;84.57;;;32.97;;
56114;SDS011;41988;53.020;6.576;2022-12-10T01:29:34;80.43;;;30.17;;
56114;SDS011;41988;53.020;6.576;2022-12-10T01:32:19;82.17;;;31.93;;
56114;SDS011;41988;53.020;6.576;2022-12-10T01:35:04;80.57;;;30.73;;
56114;SDS011;41988;53.020;6.576;2022-12-10T01:37:49;86.17;;;32.53;;
56114;SDS011;41988;53.020;6.576;2022-12-10T01:40:36;75.43;;;30.83;;
56114;SDS011;41988;53.020;6.576;2022-12-10T01:43:21;84.27;;;32.93;;
56114;SDS011;41988;53.020;6.576;2022-12-10T01:46:06;87.13;;;33.27;;
56114;SDS011;41988;53.020;6.576;2022-12-10T01:48:51;77.17;;;34.83;;
56114;SDS011;41988;53.020;6.576;2022-12-10T01:51:37;86.17;;;33.87;;
56114;SDS011;41988;53.020;6.576;2022-12-10T01:54:28;74.43;;;31.43;;
56114;SDS011;41988;53.020;6.576;2022-12-10T01:57:19;75.90;;;31.83;;
56114;SDS011;41988;53.020;6.576;2022-12-10T02:00:06;77.13;;;32.17;;
56114;SDS011;41988;53.020;6.576;2022-12-10T02:03:01;88.60;;;31.80;;
56114;SDS011;41988;53.020;6.576;2022-12-10T02:05:54;79.80;;;32.97;;
56114;SDS011;41988;53.020;6.576;2022-12-10T02:11:58;80.25;;;31.95;;
56114;SDS011;41988;53.020;6.576;2022-12-10T02:15:05;80.27;;;33.30;;
56114;SDS011;41988;53.020;6.576;2022-12-10T02:17:56;79.20;;;34.67;;
56114;SDS011;41988;53.020;6.576;2022-12-10T02:20:48;73.77;;;31.77;;
56114;SDS011;41988;53.020;6.576;2022-12-10T02:23:39;96.00;;;34.43;;
56114;SDS011;41988;53.020;6.576;2022-12-10T02:26:40;78.63;;;34.40;;
56114;SDS011;41988;53.020;6.576;2022-12-10T02:29:27;83.13;;;33.70;;
56114;SDS011;41988;53.020;6.576;2022-12-10T02:32:21;89.93;;;36.90;;
56114;SDS011;41988;53.020;6.576;2022-12-10T02:35:13;85.20;;;34.70;;
56114;SDS011;41988;53.020;6.576;2022-12-10T02:38:09;85.07;;;35.13;;
56114;SDS011;41988;53.020;6.576;2022-12-10T02:41:02;97.30;;;37.33;;
56114;SDS011;41988;53.020;6.576;2022-12-10T02:43:51;89.53;;;34.23;;
56114;SDS011;41988;53.020;6.576;2022-12-10T02:46:38;87.77;;;34.07;;
56114;SDS011;41988;53.020;6.576;2022-12-10T02:49:24;90.73;;;36.47;;
56114;SDS011;41988;53.020;6.576;2022-12-10T02:52:14;87.80;;;35.50;;
56114;SDS011;41988;53.020;6.576;2022-12-10T02:55:02;98.73;;;34.97;;
56114;SDS011;41988;53.020;6.576;2022-12-10T03:00:46;93.43;;;34.53;;
56114;SDS011;41988;53.020;6.576;2022-12-10T03:03:48;85.27;;;34.50;;
56114;SDS011;41988;53.020;6.576;2022-12-10T03:06:43;90.20;;;36.73;;
56114;SDS011;41988;53.020;6.576;2022-12-10T03:09:35;91.43;;;37.67;;
56114;SDS011;41988;53.020;6.576;2022-12-10T03:12:25;97.83;;;35.43;;
56114;SDS011;41988;53.020;6.576;2022-12-10T03:15:21;87.33;;;34.47;;
56114;SDS011;41988;53.020;6.576;2022-12-10T03:18:09;84.40;;;35.80;;
56114;SDS011;41988;53.020;6.576;2022-12-10T03:20:56;95.30;;;36.10;;
56114;SDS011;41988;53.020;6.576;2022-12-10T03:23:45;93.17;;;36.50;;
56114;SDS011;41988;53.020;6.576;2022-12-10T03:26:31;87.97;;;33.60;;
56114;SDS011;41988;53.020;6.576;2022-12-10T03:29:17;99.10;;;37.30;;
56114;SDS011;41988;53.020;6.576;2022-12-10T03:32:06;91.23;;;35.43;;
56114;SDS011;41988;53.020;6.576;2022-12-10T03:34:51;89.77;;;35.40;;
56114;SDS011;41988;53.020;6.576;2022-12-10T03:37:37;90.67;;;35.03;;
56114;SDS011;41988;53.020;6.576;2022-12-10T03:40:22;87.33;;;33.97;;
56114;SDS011;41988;53.020;6.576;2022-12-10T03:43:08;90.70;;;35.20;;
56114;SDS011;41988;53.020;6.576;2022-12-10T03:45:52;94.87;;;38.43;;
56114;SDS011;41988;53.020;6.576;2022-12-10T03:48:37;89.60;;;35.50;;
56114;SDS011;41988;53.020;6.576;2022-12-10T03:51:21;99.63;;;36.33;;
56114;SDS011;41988;53.020;6.576;2022-12-10T03:54:06;87.23;;;36.10;;
56114;SDS011;41988;53.020;6.576;2022-12-10T03:56:50;84.60;;;35.33;;
56114;SDS011;41988;53.020;6.576;2022-12-10T03:59:35;93.73;;;35.17;;
56114;SDS011;41988;53.020;6.576;2022-12-10T04:02:19;100.23;;;37.93;;
56114;SDS011;41988;53.020;6.576;2022-12-10T04:05:04;91.93;;;34.57;;
56114;SDS011;41988;53.020;6.576;2022-12-10T04:07:49;87.47;;;36.07;;
56114;SDS011;41988;53.020;6.576;2022-12-10T04:10:35;90.70;;;36.87;;
56114;SDS011;41988;53.020;6.576;2022-12-10T04:13:22;95.10;;;36.50;;
56114;SDS011;41988;53.020;6.576;2022-12-10T04:16:25;98.00;;;36.83;;
56114;SDS011;41988;53.020;6.576;2022-12-10T04:19:12;96.37;;;34.87;;
56114;SDS011;41988;53.020;6.576;2022-12-10T04:21:57;85.50;;;37.50;;
56114;SDS011;41988;53.020;6.576;2022-12-10T04:25:00;98.87;;;37.93;;
56114;SDS011;41988;53.020;6.576;2022-12-10T04:28:17;93.53;;;35.83;;
56114;SDS011;41988;53.020;6.576;2022-12-10T04:31:02;85.47;;;35.67;;
56114;SDS011;41988;53.020;6.576;2022-12-10T04:33:47;95.37;;;37.07;;
56114;SDS011;41988;53.020;6.576;2022-12-10T04:36:31;94.83;;;36.13;;
56114;SDS011;41988;53.020;6.576;2022-12-10T04:39:16;84.33;;;35.27;;
56114;SDS011;41988;53.020;6.576;2022-12-10T04:42:01;92.37;;;35.33;;
56114;SDS011;41988;53.020;6.576;2022-12-10T04:44:45;94.40;;;36.60;;
56114;SDS011;41988;53.020;6.576;2022-12-10T04:47:30;90.07;;;36.70;;
56114;SDS011;41988;53.020;6.576;2022-12-10T04:50:15;97.47;;;34.90;;
56114;SDS011;41988;53.020;6.576;2022-12-10T04:52:59;93.47;;;36.70;;
56114;SDS011;41988;53.020;6.576;2022-12-10T04:55:44;83.50;;;34.73;;
56114;SDS011;41988;53.020;6.576;2022-12-10T04:58:28;90.80;;;34.73;;
56114;SDS011;41988;53.020;6.576;2022-12-10T05:01:14;98.30;;;37.17;;
56114;SDS011;41988;53.020;6.576;2022-12-10T05:04:00;88.70;;;33.27;;
56114;SDS011;41988;53.020;6.576;2022-12-10T05:06:47;94.03;;;36.37;;
56114;SDS011;41988;53.020;6.576;2022-12-10T05:09:32;90.00;;;33.00;;
56114;SDS011;41988;53.020;6.576;2022-12-10T05:12:17;83.63;;;36.57;;
56114;SDS011;41988;53.020;6.576;2022-12-10T05:15:01;96.67;;;37.20;;
56114;SDS011;41988;53.020;6.576;2022-12-10T05:20:30;92.88;;;32.67;;
56114;SDS011;41988;53.020;6.576;2022-12-10T05:26:20;89.20;;;34.70;;
56114;SDS011;41988;53.020;6.576;2022-12-10T05:29:08;96.07;;;37.20;;
56114;SDS011;41988;53.020;6.576;2022-12-10T05:31:53;95.07;;;35.37;;
56114;SDS011;41988;53.020;6.576;2022-12-10T05:34:37;90.07;;;36.37;;
56114;SDS011;41988;53.020;6.576;2022-12-10T05:37:21;101.83;;;38.27;;
56114;SDS011;41988;53.020;6.576;2022-12-10T05:40:06;91.00;;;35.00;;
56114;SDS011;41988;53.020;6.576;2022-12-10T05:42:51;104.40;;;37.30;;
56114;SDS011;41988;53.020;6.576;2022-12-10T05:45:36;105.90;;;36.17;;
56114;SDS011;41988;53.020;6.576;2022-12-10T05:48:20;103.40;;;37.70;;
56114;SDS011;41988;53.020;6.576;2022-12-10T05:51:06;103.77;;;40.07;;
56114;SDS011;41988;53.020;6.576;2022-12-10T05:53:51;102.60;;;37.97;;
56114;SDS011;41988;53.020;6.576;2022-12-10T05:56:37;102.07;;;38.53;;
56114;SDS011;41988;53.020;6.576;2022-12-10T05:59:22;105.13;;;40.20;;
56114;SDS011;41988;53.020;6.576;2022-12-10T06:02:06;114.40;;;39.23;;
56114;SDS011;41988;53.020;6.576;2022-12-10T06:04:51;121.03;;;40.77;;
56114;SDS011;41988;53.020;6.576;2022-12-10T06:07:35;125.60;;;42.40;;
56114;SDS011;41988;53.020;6.576;2022-12-10T06:10:20;127.87;;;41.70;;
56114;SDS011;41988;53.020;6.576;2022-12-10T06:13:04;122.87;;;43.73;;
56114;SDS011;41988;53.020;6.576;2022-12-10T06:15:49;108.47;;;39.83;;
56114;SDS011;41988;53.020;6.576;2022-12-10T06:18:34;126.47;;;43.10;;
56114;SDS011;41988;53.020;6.576;2022-12-10T06:21:20;124.97;;;43.13;;
56114;SDS011;41988;53.020;6.576;2022-12-10T06:24:04;129.37;;;41.77;;
56114;SDS011;41988;53.020;6.576;2022-12-10T06:26:49;119.40;;;39.57;;
56114;SDS011;41988;53.020;6.576;2022-12-10T06:29:34;124.50;;;42.20;;
56114;SDS011;41988;53.020;6.576;2022-12-10T06:32:19;122.73;;;41.83;;
56114;SDS011;41988;53.020;6.576;2022-12-10T06:35:03;133.27;;;45.20;;
56114;SDS011;41988;53.020;6.576;2022-12-10T06:37:48;131.60;;;42.33;;
56114;SDS011;41988;53.020;6.576;2022-12-10T06:40:33;134.07;;;41.70;;
56114;SDS011;41988;53.020;6.576;2022-12-10T06:43:17;142.27;;;42.67;;
56114;SDS011;41988;53.020;6.576;2022-12-10T06:46:06;126.60;;;40.07;;
56114;SDS011;41988;53.020;6.576;2022-12-10T06:48:51;133.40;;;39.73;;
56114;SDS011;41988;53.020;6.576;2022-12-10T06:51:35;126.70;;;41.40;;
56114;SDS011;41988;53.020;6.576;2022-12-10T06:54:21;133.20;;;43.67;;
56114;SDS011;41988;53.020;6.576;2022-12-10T06:57:06;130.73;;;40.57;;
56114;SDS011;41988;53.020;6.576;2022-12-10T06:59:50;134.40;;;41.43;;
56114;SDS011;41988;53.020;6.576;2022-12-10T07:02:35;139.57;;;42.03;;
56114;SDS011;41988;53.020;6.576;2022-12-10T07:05:19;142.23;;;41.83;;
56114;SDS011;41988;53.020;6.576;2022-12-10T07:08:04;140.03;;;42.27;;
56114;SDS011;41988;53.020;6.576;2022-12-10T07:10:48;142.57;;;43.23;;
56114;SDS011;41988;53.020;6.576;2022-12-10T07:13:33;149.40;;;43.07;;
56114;SDS011;41988;53.020;6.576;2022-12-10T07:16:19;155.60;;;42.53;;
56114;SDS011;41988;53.020;6.576;2022-12-10T07:19:09;155.53;;;41.10;;
56114;SDS011;41988;53.020;6.576;2022-12-10T07:21:55;153.00;;;42.13;;
56114;SDS011;41988;53.020;6.576;2022-12-10T07:24:39;158.03;;;43.13;;
56114;SDS011;41988;53.020;6.576;2022-12-10T07:27:24;156.03;;;41.50;;
56114;SDS011;41988;53.020;6.576;2022-12-10T07:30:08;150.33;;;43.70;;
56114;SDS011;41988;53.020;6.576;2022-12-10T07:32:53;149.83;;;47.63;;
56114;SDS011;41988;53.020;6.576;2022-12-10T07:35:38;166.67;;;42.63;;
56114;SDS011;41988;53.020;6.576;2022-12-10T07:38:23;142.50;;;41.97;;
56114;SDS011;41988;53.020;6.576;2022-12-10T07:41:10;144.40;;;43.47;;
56114;SDS011;41988;53.020;6.576;2022-12-10T07:43:55;158.57;;;42.87;;
56114;SDS011;41988;53.020;6.576;2022-12-10T07:46:40;150.57;;;44.20;;
56114;SDS011;41988;53.020;6.576;2022-12-10T07:49:24;179.67;;;45.83;;
56114;SDS011;41988;53.020;6.576;2022-12-10T07:52:09;161.47;;;43.97;;
56114;SDS011;41988;53.020;6.576;2022-12-10T07:54:53;137.77;;;46.13;;
56114;SDS011;41988;53.020;6.576;2022-12-10T07:57:38;151.73;;;47.93;;
56114;SDS011;41988;53.020;6.576;2022-12-10T08:00:22;146.63;;;44.93;;
56114;SDS011;41988;53.020;6.576;2022-12-10T08:03:07;156.33;;;44.40;;
56114;SDS011;41988;53.020;6.576;2022-12-10T08:06:05;150.10;;;45.20;;
56114;SDS011;41988;53.020;6.576;2022-12-10T08:08:51;144.50;;;40.60;;
56114;SDS011;41988;53.020;6.576;2022-12-10T08:11:36;153.63;;;44.87;;
56114;SDS011;41988;53.020;6.576;2022-12-10T08:14:21;153.30;;;46.17;;
56114;SDS011;41988;53.020;6.576;2022-12-10T08:17:05;149.93;;;44.37;;
56114;SDS011;41988;53.020;6.576;2022-12-10T08:19:50;131.13;;;44.60;;
56114;SDS011;41988;53.020;6.576;2022-12-10T08:22:34;141.83;;;43.20;;
56114;SDS011;41988;53.020;6.576;2022-12-10T08:25:20;145.03;;;42.37;;
56114;SDS011;41988;53.020;6.576;2022-12-10T08:28:04;142.37;;;43.37;;
56114;SDS011;41988;53.020;6.576;2022-12-10T08:30:49;130.30;;;43.20;;
56114;SDS011;41988;53.020;6.576;2022-12-10T08:33:34;138.57;;;44.83;;
56114;SDS011;41988;53.020;6.576;2022-12-10T08:36:20;136.23;;;41.80;;
56114;SDS011;41988;53.020;6.576;2022-12-10T08:39:05;132.00;;;44.03;;
56114;SDS011;41988;53.020;6.576;2022-12-10T08:41:49;130.93;;;42.13;;
56114;SDS011;41988;53.020;6.576;2022-12-10T08:44:34;143.97;;;45.63;;
56114;SDS011;41988;53.020;6.576;2022-12-10T08:47:18;123.73;;;41.27;;
56114;SDS011;41988;53.020;6.576;2022-12-10T08:50:03;125.70;;;43.50;;
56114;SDS011;41988;53.020;6.576;2022-12-10T08:52:47;119.67;;;40.33;;
56114;SDS011;41988;53.020;6.576;2022-12-10T08:55:32;124.23;;;40.17;;
56114;SDS011;41988;53.020;6.576;2022-12-10T08:58:18;137.20;;;42.93;;
56114;SDS011;41988;53.020;6.576;2022-12-10T09:01:10;129.17;;;42.63;;
56114;SDS011;41988;53.020;6.576;2022-12-10T09:03:56;131.87;;;42.97;;
56114;SDS011;41988;53.020;6.576;2022-12-10T09:06:40;125.47;;;40.73;;
56114;SDS011;41988;53.020;6.576;2022-12-10T09:09:25;135.87;;;42.17;;
56114;SDS011;41988;53.020;6.576;2022-12-10T09:12:09;138.67;;;44.47;;
56114;SDS011;41988;53.020;6.576;2022-12-10T09:14:54;133.10;;;44.77;;
56114;SDS011;41988;53.020;6.576;2022-12-10T09:17:39;128.40;;;39.73;;
56114;SDS011;41988;53.020;6.576;2022-12-10T09:20:24;116.10;;;41.43;;
56114;SDS011;41988;53.020;6.576;2022-12-10T09:23:08;120.27;;;39.33;;
56114;SDS011;41988;53.020;6.576;2022-12-10T09:25:53;125.63;;;41.00;;
56114;SDS011;41988;53.020;6.576;2022-12-10T09:28:37;113.73;;;40.20;;
56114;SDS011;41988;53.020;6.576;2022-12-10T09:31:22;118.33;;;38.67;;
56114;SDS011;41988;53.020;6.576;2022-12-10T09:34:06;123.43;;;41.87;;
56114;SDS011;41988;53.020;6.576;2022-12-10T09:36:50;114.60;;;39.10;;
56114;SDS011;41988;53.020;6.576;2022-12-10T09:39:35;123.27;;;39.97;;
56114;SDS011;41988;53.020;6.576;2022-12-10T09:42:41;126.60;;;41.53;;
56114;SDS011;41988;53.020;6.576;2022-12-10T09:48:41;127.00;;;40.77;;
56114;SDS011;41988;53.020;6.576;2022-12-10T09:51:56;113.93;;;38.57;;
56114;SDS011;41988;53.020;6.576;2022-12-10T09:54:45;109.73;;;39.43;;
56114;SDS011;41988;53.020;6.576;2022-12-10T09:57:44;112.32;;;39.15;;
56114;SDS011;41988;53.020;6.576;2022-12-10T10:00:38;124.50;;;40.30;;
56114;SDS011;41988;53.020;6.576;2022-12-10T10:03:24;118.50;;;42.20;;
56114;SDS011;41988;53.020;6.576;2022-12-10T10:06:10;110.27;;;40.80;;
56114;SDS011;41988;53.020;6.576;2022-12-10T10:08:57;122.47;;;40.20;;
56114;SDS011;41988;53.020;6.576;2022-12-10T10:11:44;128.50;;;42.47;;
56114;SDS011;41988;53.020;6.576;2022-12-10T10:14:29;128.93;;;43.57;;
56114;SDS011;41988;53.020;6.576;2022-12-10T10:17:16;136.80;;;44.27;;
56114;SDS011;41988;53.020;6.576;2022-12-10T10:20:05;135.67;;;42.17;;
56114;SDS011;41988;53.020;6.576;2022-12-10T10:22:50;131.00;;;44.47;;
56114;SDS011;41988;53.020;6.576;2022-12-10T10:25:34;132.83;;;43.37;;
56114;SDS011;41988;53.020;6.576;2022-12-10T10:28:20;112.97;;;41.53;;
56114;SDS011;41988;53.020;6.576;2022-12-10T10:31:16;130.23;;;40.93;;
56114;SDS011;41988;53.020;6.576;2022-12-10T10:34:16;125.73;;;41.40;;
56114;SDS011;41988;53.020;6.576;2022-12-10T10:45:32;122.90;;;41.50;;
56114;SDS011;41988;53.020;6.576;2022-12-10T10:48:20;124.97;;;41.13;;
56114;SDS011;41988;53.020;6.576;2022-12-10T10:53:54;116.57;;;42.37;;
56114;SDS011;41988;53.020;6.576;2022-12-10T10:56:40;138.20;;;42.60;;
56114;SDS011;41988;53.020;6.576;2022-12-10T10:59:30;134.93;;;40.07;;
56114;SDS011;41988;53.020;6.576;2022-12-10T11:02:21;139.87;;;41.33;;
56114;SDS011;41988;53.020;6.576;2022-12-10T11:05:31;129.53;;;40.83;;
56114;SDS011;41988;53.020;6.576;2022-12-10T11:08:18;120.67;;;39.57;;
56114;SDS011;41988;53.020;6.576;2022-12-10T11:11:05;104.03;;;39.23;;
56114;SDS011;41988;53.020;6.576;2022-12-10T11:13:54;126.27;;;39.77;;
56114;SDS011;41988;53.020;6.576;2022-12-10T11:20:00;141.97;;;42.57;;
56114;SDS011;41988;53.020;6.576;2022-12-10T11:23:09;134.07;;;42.00;;
56114;SDS011;41988;53.020;6.576;2022-12-10T11:26:02;131.80;;;39.20;;
56114;SDS011;41988;53.020;6.576;2022-12-10T11:35:00;117.13;;;39.87;;
56114;SDS011;41988;53.020;6.576;2022-12-10T11:42:56;91.77;;;35.93;;
56114;SDS011;41988;53.020;6.576;2022-12-10T11:46:05;97.03;;;35.10;;
56114;SDS011;41988;53.020;6.576;2022-12-10T11:54:56;96.30;;;34.00;;
56114;SDS011;41988;53.020;6.576;2022-12-10T11:58:03;86.47;;;31.27;;
56114;SDS011;41988;53.020;6.576;2022-12-10T12:00:55;85.90;;;30.77;;
56114;SDS011;41988;53.020;6.576;2022-12-10T12:13:23;78.75;;;30.17;;
56114;SDS011;41988;53.020;6.576;2022-12-10T12:16:45;84.90;;;30.97;;
56114;SDS011;41988;53.020;6.576;2022-12-10T12:19:53;84.40;;;32.43;;
56114;SDS011;41988;53.020;6.576;2022-12-10T12:22:42;69.30;;;26.23;;
56114;SDS011;41988;53.020;6.576;2022-12-10T12:25:53;72.63;;;25.93;;
56114;SDS011;41988;53.020;6.576;2022-12-10T12:28:41;86.87;;;29.37;;
56114;SDS011;41988;53.020;6.576;2022-12-10T12:31:34;91.67;;;34.70;;
56114;SDS011;41988;53.020;6.576;2022-12-10T12:34:21;83.93;;;33.37;;
56114;SDS011;41988;53.020;6.576;2022-12-10T12:37:12;74.87;;;30.03;;
56114;SDS011;41988;53.020;6.576;2022-12-10T12:42:58;66.47;;;27.25;;
56114;SDS011;41988;53.020;6.576;2022-12-10T12:45:46;72.50;;;28.30;;
56114;SDS011;41988;53.020;6.576;2022-12-10T12:48:55;75.67;;;28.60;;
56114;SDS011;41988;53.020;6.576;2022-12-10T12:51:46;70.53;;;27.07;;
56114;SDS011;41988;53.020;6.576;2022-12-10T12:54:36;78.40;;;29.40;;
56114;SDS011;41988;53.020;6.576;2022-12-10T12:57:25;74.43;;;28.67;;
56114;SDS011;41988;53.020;6.576;2022-12-10T13:00:24;64.70;;;29.40;;
56114;SDS011;41988;53.020;6.576;2022-12-10T13:03:36;69.47;;;27.37;;
56114;SDS011;41988;53.020;6.576;2022-12-10T13:06:28;70.43;;;27.55;;
56114;SDS011;41988;53.020;6.576;2022-12-10T13:09:16;66.73;;;27.60;;
56114;SDS011;41988;53.020;6.576;2022-12-10T13:18:00;68.73;;;27.23;;
56114;SDS011;41988;53.020;6.576;2022-12-10T13:24:11;69.27;;;27.10;;
56114;SDS011;41988;53.020;6.576;2022-12-10T13:27:14;75.60;;;28.60;;
56114;SDS011;41988;53.020;6.576;2022-12-10T13:33:04;71.00;;;28.83;;
56114;SDS011;41988;53.020;6.576;2022-12-10T13:36:02;76.37;;;28.37;;
56114;SDS011;41988;53.020;6.576;2022-12-10T13:48:15;84.00;;;31.50;;
56114;SDS011;41988;53.020;6.576;2022-12-10T13:51:21;87.83;;;31.70;;
56114;SDS011;41988;53.020;6.576;2022-12-10T13:54:31;86.57;;;31.57;;
56114;SDS011;41988;53.020;6.576;2022-12-10T13:57:50;86.97;;;31.30;;
56114;SDS011;41988;53.020;6.576;2022-12-10T14:00:54;85.00;;;31.33;;
56114;SDS011;41988;53.020;6.576;2022-12-10T14:06:39;87.30;;;32.47;;
56114;SDS011;41988;53.020;6.576;2022-12-10T14:09:25;76.23;;;28.93;;
56114;SDS011;41988;53.020;6.576;2022-12-10T14:12:35;88.07;;;31.23;;
56114;SDS011;41988;53.020;6.576;2022-12-10T14:15:24;90.20;;;31.67;;
56114;SDS011;41988;53.020;6.576;2022-12-10T14:18:11;92.23;;;31.60;;
56114;SDS011;41988;53.020;6.576;2022-12-10T14:20:59;93.93;;;30.87;;
56114;SDS011;41988;53.020;6.576;2022-12-10T14:23:49;93.37;;;31.33;;
56114;SDS011;41988;53.020;6.576;2022-12-10T14:26:35;97.23;;;32.53;;
56114;SDS011;41988;53.020;6.576;2022-12-10T14:29:20;89.67;;;32.27;;
56114;SDS011;41988;53.020;6.576;2022-12-10T14:32:05;102.37;;;34.30;;
56114;SDS011;41988;53.020;6.576;2022-12-10T14:34:51;89.17;;;31.47;;
56114;SDS011;41988;53.020;6.576;2022-12-10T14:37:39;94.07;;;32.83;;
56114;SDS011;41988;53.020;6.576;2022-12-10T14:40:27;93.83;;;32.37;;
56114;SDS011;41988;53.020;6.576;2022-12-10T14:43:17;93.73;;;32.60;;
56114;SDS011;41988;53.020;6.576;2022-12-10T14:46:05;112.23;;;35.73;;
56114;SDS011;41988;53.020;6.576;2022-12-10T14:48:57;117.27;;;38.00;;
56114;SDS011;41988;53.020;6.576;2022-12-10T14:51:41;122.53;;;40.63;;
56114;SDS011;41988;53.020;6.576;2022-12-10T14:54:30;96.73;;;32.20;;
56114;SDS011;41988;53.020;6.576;2022-12-10T14:57:37;85.57;;;30.17;;
56114;SDS011;41988;53.020;6.576;2022-12-10T15:00:25;86.57;;;31.27;;
56114;SDS011;41988;53.020;6.576;2022-12-10T15:03:10;80.40;;;29.07;;
56114;SDS011;41988;53.020;6.576;2022-12-10T15:06:01;82.47;;;27.73;;
56114;SDS011;41988;53.020;6.576;2022-12-10T15:08:51;76.23;;;26.60;;
56114;SDS011;41988;53.020;6.576;2022-12-10T15:11:39;81.60;;;26.47;;
56114;SDS011;41988;53.020;6.576;2022-12-10T15:14:24;80.40;;;27.00;;
56114;SDS011;41988;53.020;6.576;2022-12-10T15:20:27;79.00;;;29.73;;
56114;SDS011;41988;53.020;6.576;2022-12-10T15:29:15;123.27;;;33.43;;
56114;SDS011;41988;53.020;6.576;2022-12-10T15:32:20;119.33;;;32.37;;
56114;SDS011;41988;53.020;6.576;2022-12-10T15:35:10;109.20;;;33.07;;
56114;SDS011;41988;53.020;6.576;2022-12-10T15:37:57;124.97;;;33.30;;
56114;SDS011;41988;53.020;6.576;2022-12-10T15:40:44;131.93;;;34.43;;
56114;SDS011;41988;53.020;6.576;2022-12-10T15:43:29;137.00;;;36.90;;
56114;SDS011;41988;53.020;6.576;2022-12-10T15:46:17;141.70;;;35.40;;
56114;SDS011;41988;53.020;6.576;2022-12-10T15:49:01;128.43;;;33.37;;
56114;SDS011;41988;53.020;6.576;2022-12-10T15:51:46;127.77;;;32.70;;
56114;SDS011;41988;53.020;6.576;2022-12-10T15:54:35;134.97;;;34.27;;
56114;SDS011;41988;53.020;6.576;2022-12-10T16:00:06;140.67;;;32.90;;
56114;SDS011;41988;53.020;6.576;2022-12-10T16:05:39;139.87;;;37.43;;
56114;SDS011;41988;53.020;6.576;2022-12-10T16:08:25;134.70;;;31.70;;
56114;SDS011;41988;53.020;6.576;2022-12-10T16:11:14;142.70;;;34.77;;
56114;SDS011;41988;53.020;6.576;2022-12-10T16:14:01;149.77;;;36.13;;
56114;SDS011;41988;53.020;6.576;2022-12-10T16:16:46;129.83;;;33.63;;
56114;SDS011;41988;53.020;6.576;2022-12-10T16:19:31;143.50;;;32.77;;
56114;SDS011;41988;53.020;6.576;2022-12-10T16:22:15;124.73;;;31.40;;
56114;SDS011;41988;53.020;6.576;2022-12-10T16:25:00;122.07;;;33.30;;
56114;SDS011;41988;53.020;6.576;2022-12-10T16:27:45;140.07;;;34.73;;
56114;SDS011;41988;53.020;6.576;2022-12-10T16:30:37;124.60;;;35.23;;
56114;SDS011;41988;53.020;6.576;2022-12-10T16:33:27;160.17;;;37.13;;
56114;SDS011;41988;53.020;6.576;2022-12-10T16:36:12;189.93;;;41.57;;
56114;SDS011;41988;53.020;6.576;2022-12-10T16:38:56;165.43;;;38.90;;
56114;SDS011;41988;53.020;6.576;2022-12-10T16:41:41;194.87;;;42.03;;
56114;SDS011;41988;53.020;6.576;2022-12-10T16:44:26;170.63;;;40.00;;
56114;SDS011;41988;53.020;6.576;2022-12-10T16:47:10;182.13;;;42.37;;
56114;SDS011;41988;53.020;6.576;2022-12-10T16:49:55;175.87;;;41.97;;
56114;SDS011;41988;53.020;6.576;2022-12-10T16:52:40;179.47;;;40.97;;
56114;SDS011;41988;53.020;6.576;2022-12-10T16:55:25;257.40;;;43.53;;
56114;SDS011;41988;53.020;6.576;2022-12-10T16:58:10;207.67;;;44.90;;
56114;SDS011;41988;53.020;6.576;2022-12-10T17:00:58;232.53;;;42.10;;
56114;SDS011;41988;53.020;6.576;2022-12-10T17:03:44;204.03;;;42.20;;
56114;SDS011;41988;53.020;6.576;2022-12-10T17:06:28;234.27;;;45.40;;
56114;SDS011;41988;53.020;6.576;2022-12-10T17:09:13;213.07;;;41.60;;
56114;SDS011;41988;53.020;6.576;2022-12-10T17:11:57;178.43;;;41.17;;
56114;SDS011;41988;53.020;6.576;2022-12-10T17:14:42;211.10;;;43.47;;
56114;SDS011;41988;53.020;6.576;2022-12-10T17:17:30;191.77;;;41.43;;
56114;SDS011;41988;53.020;6.576;2022-12-10T17:20:15;230.30;;;45.57;;
56114;SDS011;41988;53.020;6.576;2022-12-10T17:23:01;200.77;;;43.57;;
56114;SDS011;41988;53.020;6.576;2022-12-10T17:25:46;218.87;;;39.43;;
56114;SDS011;41988;53.020;6.576;2022-12-10T17:28:32;240.37;;;39.33;;
56114;SDS011;41988;53.020;6.576;2022-12-10T17:31:17;210.87;;;42.37;;
56114;SDS011;41988;53.020;6.576;2022-12-10T17:34:02;224.40;;;43.77;;
56114;SDS011;41988;53.020;6.576;2022-12-10T17:36:47;160.10;;;37.63;;
56114;SDS011;41988;53.020;6.576;2022-12-10T17:39:31;193.10;;;39.83;;
56114;SDS011;41988;53.020;6.576;2022-12-10T17:42:16;191.13;;;37.03;;
56114;SDS011;41988;53.020;6.576;2022-12-10T17:45:00;186.33;;;38.20;;
56114;SDS011;41988;53.020;6.576;2022-12-10T17:47:45;198.87;;;38.80;;
56114;SDS011;41988;53.020;6.576;2022-12-10T17:50:31;201.50;;;38.77;;
56114;SDS011;41988;53.020;6.576;2022-12-10T17:53:17;200.80;;;39.13;;
56114;SDS011;41988;53.020;6.576;2022-12-10T17:56:02;225.63;;;40.47;;